Time;durP1;ratioP1;P1;durP2;ratioP2;P2;SDS_P1;SDS_P2;PMS_P1;PMS_P2;Temp;Humidity;BMP_temperature;BMP_pressure;BME280_temperature;BME280_humidity;BME280_pressure;Samples;Min_cycle;Max_cycle;Signal;HPM_P1;HPM_P2
2022/12/29 00:01:35;;;;;;;;;67.67;54.67;;;;;;;;6487892;39;8863;-61
2022/12/29 00:07:39;;;;;;;;;69.67;54.00;;;;;;;;6488161;36;8977;-60
2022/12/29 00:45:41;;;;;;;;;66.00;54.33;;;;;;;;6486938;31;9026;-61
2022/12/29 00:51:43;;;;;;;;;60.67;45.33;;;;;;;;6486764;47;8881;-62
2022/12/29 00:57:46;;;;;;;;;73.67;58.00;;;;;;;;6485804;47;8986;-61
2022/12/29 01:03:48;;;;;;;;;71.67;58.33;;;;;;;;6486832;39;9573;-61
2022/12/29 01:10:14;;;;;;;;;72.33;58.67;;;;;;;;6487448;31;8926;-61
2022/12/29 01:16:16;;;;;;;;;74.00;60.50;;;;;;;;6488770;31;9056;-61
2022/12/29 01:22:19;;;;;;;;;70.00;58.67;;;;;;;;6492482;46;9002;-63
2022/12/29 01:28:23;;;;;;;;;71.33;58.00;;;;;;;;6489201;31;8889;-61
2022/12/29 01:34:27;;;;;;;;;75.33;58.67;;;;;;;;6487889;39;8887;-62
2022/12/29 01:40:29;;;;;;;;;70.67;54.00;;;;;;;;6487527;31;8947;-61
2022/12/29 01:46:41;;;;;;;;;78.00;63.33;;;;;;;;6487721;31;8930;-62
2022/12/29 01:52:52;;;;;;;;;79.00;61.67;;;;;;;;6487974;39;8921;-63
2022/12/29 01:59:02;;;;;;;;;78.00;63.00;;;;;;;;6486919;31;8894;-62
2022/12/29 02:05:11;;;;;;;;;80.67;65.33;;;;;;;;6487400;31;8960;-61
2022/12/29 02:11:14;;;;;;;;;83.33;67.00;;;;;;;;6488248;39;8903;-61
2022/12/29 02:17:28;;;;;;;;;84.00;66.00;;;;;;;;6487874;39;8972;-62
2022/12/29 02:23:54;;;;;;;;;71.00;58.67;;;;;;;;6486371;46;8930;-62
2022/12/29 02:30:30;;;;;;;;;75.00;60.33;;;;;;;;6486918;39;8940;-62
2022/12/29 02:36:46;;;;;;;;;87.00;69.33;;;;;;;;6488090;31;9577;-61
2022/12/29 02:43:02;;;;;;;;;92.33;71.00;;;;;;;;6488075;39;8885;-62
2022/12/29 02:49:14;;;;;;;;;90.33;72.00;;;;;;;;6488271;39;9143;-62
2022/12/29 02:55:18;;;;;;;;;91.00;71.33;;;;;;;;6487313;31;8897;-62
2022/12/29 03:01:39;;;;;;;;;87.33;70.33;;;;;;;;6487564;39;8905;-63
2022/12/29 03:07:54;;;;;;;;;84.33;67.00;;;;;;;;6487109;39;9019;-61
2022/12/29 03:20:49;;;;;;;;;86.67;68.00;;;;;;;;6486515;46;8893;-60
2022/12/29 03:26:54;;;;;;;;;78.00;63.00;;;;;;;;6487172;31;8919;-62
2022/12/29 03:33:02;;;;;;;;;84.33;70.00;;;;;;;;6486527;46;8953;-62
2022/12/29 03:39:12;;;;;;;;;79.00;66.00;;;;;;;;6486749;39;8903;-63
2022/12/29 03:45:15;;;;;;;;;82.00;63.00;;;;;;;;6487215;31;8932;-62
2022/12/29 03:51:21;;;;;;;;;82.00;64.67;;;;;;;;6487115;39;8867;-62
2022/12/29 03:57:26;;;;;;;;;79.67;64.67;;;;;;;;6494188;31;8957;-62
2022/12/29 04:03:33;;;;;;;;;79.67;64.00;;;;;;;;6486919;46;8939;-64
2022/12/29 04:09:36;;;;;;;;;82.67;63.33;;;;;;;;6486163;31;8957;-62
2022/12/29 04:15:39;;;;;;;;;81.00;66.33;;;;;;;;6486866;46;8962;-64
2022/12/29 04:21:42;;;;;;;;;77.33;63.00;;;;;;;;6486701;39;8889;-63
2022/12/29 04:27:44;;;;;;;;;84.00;65.00;;;;;;;;6486471;39;8973;-63
2022/12/29 04:34:08;;;;;;;;;69.00;57.67;;;;;;;;6486188;39;8967;-62
2022/12/29 04:40:19;;;;;;;;;82.67;63.33;;;;;;;;6488052;31;8995;-63
2022/12/29 04:46:22;;;;;;;;;72.67;59.33;;;;;;;;6485661;39;8932;-63
2022/12/29 04:52:46;;;;;;;;;78.33;60.00;;;;;;;;6486116;39;8954;-63
2022/12/29 04:58:49;;;;;;;;;75.33;62.00;;;;;;;;6486143;31;9017;-62
2022/12/29 05:04:51;;;;;;;;;78.00;63.00;;;;;;;;6462719;47;9061;-62
2022/12/29 05:10:55;;;;;;;;;82.67;66.67;;;;;;;;6489607;39;8905;-63
2022/12/29 06:08:18;;;;;;;;;79.00;64.67;;;;;;;;6493365;31;9147;-63
2022/12/29 06:14:22;;;;;;;;;90.00;66.00;;;;;;;;6488855;39;8894;-61
2022/12/29 06:20:25;;;;;;;;;80.67;66.67;;;;;;;;6490392;39;8813;-61
2022/12/29 06:26:30;;;;;;;;;81.00;65.67;;;;;;;;6489286;39;9606;-61
2022/12/29 06:32:33;;;;;;;;;73.67;59.33;;;;;;;;6488685;31;8880;-61
2022/12/29 06:38:39;;;;;;;;;75.67;61.33;;;;;;;;6489673;39;9012;-62
2022/12/29 06:44:41;;;;;;;;;85.67;66.67;;;;;;;;6488384;31;8979;-60
2022/12/29 06:50:45;;;;;;;;;83.33;66.67;;;;;;;;6489531;46;8891;-61
2022/12/29 06:56:48;;;;;;;;;76.00;63.67;;;;;;;;6488499;39;8872;-62
2022/12/29 07:02:51;;;;;;;;;77.67;57.33;;;;;;;;6489064;31;8930;-61
2022/12/29 07:08:54;;;;;;;;;68.67;57.33;;;;;;;;6489126;46;8916;-61
2022/12/29 07:14:59;;;;;;;;;79.67;63.33;;;;;;;;6489106;39;8866;-61
2022/12/29 07:21:03;;;;;;;;;75.33;63.00;;;;;;;;6490172;39;8837;-62
2022/12/29 07:27:09;;;;;;;;;71.67;57.67;;;;;;;;6489755;39;8978;-61
2022/12/29 07:33:11;;;;;;;;;76.33;62.67;;;;;;;;6489054;39;8900;-61
2022/12/29 07:39:13;;;;;;;;;71.67;54.00;;;;;;;;6490035;39;9475;-61
2022/12/29 07:45:16;;;;;;;;;70.67;57.33;;;;;;;;6488318;46;8947;-62
2022/12/29 07:51:22;;;;;;;;;68.67;55.33;;;;;;;;6488990;31;8931;-61
2022/12/29 07:57:25;;;;;;;;;66.33;54.00;;;;;;;;6488754;39;8923;-61
2022/12/29 08:03:33;;;;;;;;;69.33;55.67;;;;;;;;6487513;31;9002;-60
2022/12/29 08:09:45;;;;;;;;;68.50;54.75;;;;;;;;6489586;31;9138;-61
2022/12/29 08:15:49;;;;;;;;;69.25;56.00;;;;;;;;6488065;39;9617;-61
2022/12/29 08:21:55;;;;;;;;;56.75;49.50;;;;;;;;6487210;46;8875;-61
2022/12/29 08:28:01;;;;;;;;;66.00;53.00;;;;;;;;6487762;31;9063;-63
2022/12/29 08:34:06;;;;;;;;;57.50;47.50;;;;;;;;6486593;31;8944;-63
2022/12/29 08:40:09;;;;;;;;;56.00;46.75;;;;;;;;6488582;46;8938;-63
2022/12/29 08:46:17;;;;;;;;;43.75;39.50;;;;;;;;6486712;39;9075;-61
2022/12/29 08:52:19;;;;;;;;;34.50;30.00;;;;;;;;6488761;39;8957;-60
2022/12/29 08:58:21;;;;;;;;;37.75;32.00;;;;;;;;6487026;39;8987;-62
2022/12/29 09:04:24;;;;;;;;;31.50;29.75;;;;;;;;6487077;47;9032;-60
2022/12/29 09:10:27;;;;;;;;;33.00;24.25;;;;;;;;6486108;31;8937;-62
2022/12/29 09:16:30;;;;;;;;;29.25;27.00;;;;;;;;6486106;47;8948;-62
2022/12/29 09:22:36;;;;;;;;;31.25;27.25;;;;;;;;6486616;39;8926;-62
2022/12/29 09:28:40;;;;;;;;;36.00;32.25;;;;;;;;6487106;39;9000;-61
2022/12/29 09:34:44;;;;;;;;;26.75;21.50;;;;;;;;6486883;31;8906;-62
2022/12/29 09:41:05;;;;;;;;;23.50;20.50;;;;;;;;6488563;39;8924;-59
2022/12/29 09:47:13;;;;;;;;;23.25;20.75;;;;;;;;6487457;39;8953;-62
2022/12/29 09:53:40;;;;;;;;;21.00;21.00;;;;;;;;6487389;39;8925;-62
2022/12/29 09:59:45;;;;;;;;;34.00;32.50;;;;;;;;6486783;46;8926;-61
2022/12/29 10:05:59;;;;;;;;;33.00;29.00;;;;;;;;6489199;31;8972;-63
2022/12/29 10:12:23;;;;;;;;;34.50;29.75;;;;;;;;6488799;31;8961;-62
2022/12/29 10:19:03;;;;;;;;;24.50;22.00;;;;;;;;6487620;31;8967;-61
2022/12/29 10:25:16;;;;;;;;;21.75;21.75;;;;;;;;6487165;31;8961;-61
2022/12/29 10:31:23;;;;;;;;;25.25;24.25;;;;;;;;6486546;39;8983;-62
2022/12/29 10:37:39;;;;;;;;;27.75;25.75;;;;;;;;6487921;39;9576;-63
2022/12/29 10:43:51;;;;;;;;;23.50;23.50;;;;;;;;6486792;46;8954;-64
2022/12/29 10:49:58;;;;;;;;;29.75;26.25;;;;;;;;6485931;39;9035;-63
2022/12/29 10:56:01;;;;;;;;;31.50;26.00;;;;;;;;6486661;31;10211;-63
2022/12/29 11:02:06;;;;;;;;;22.00;19.25;;;;;;;;6488702;31;9485;-62
2022/12/29 11:08:21;;;;;;;;;27.75;23.00;;;;;;;;6486975;39;8965;-64
2022/12/29 11:15:10;;;;;;;;;24.67;21.00;;;;;;;;6487982;39;9731;-63
2022/12/29 11:22:00;;;;;;;;;29.50;25.50;;;;;;;;6486078;39;8929;-63
2022/12/29 11:28:30;;;;;;;;;27.75;24.75;;;;;;;;6487610;46;8936;-61
2022/12/29 11:35:06;;;;;;;;;54.75;44.00;;;;;;;;6487761;31;9056;-62
2022/12/29 11:41:14;;;;;;;;;33.00;29.50;;;;;;;;6487584;39;9136;-63
2022/12/29 11:47:30;;;;;;;;;30.25;26.75;;;;;;;;6487223;39;9047;-62
2022/12/29 11:53:50;;;;;;;;;21.00;20.50;;;;;;;;6487591;39;8959;-64
2022/12/29 11:59:59;;;;;;;;;26.50;21.75;;;;;;;;6488149;39;9527;-61
2022/12/29 12:06:02;;;;;;;;;26.50;22.00;;;;;;;;6487370;39;9011;-60
2022/12/29 12:12:08;;;;;;;;;28.50;25.00;;;;;;;;6488525;31;8870;-62
2022/12/29 12:18:21;;;;;;;;;34.75;32.00;;;;;;;;6486898;39;8961;-61
2022/12/29 12:25:05;;;;;;;;;31.75;28.25;;;;;;;;6486975;39;8842;-61
2022/12/29 12:31:18;;;;;;;;;31.75;26.75;;;;;;;;6486832;46;8921;-61
2022/12/29 12:37:36;;;;;;;;;30.25;29.25;;;;;;;;6487968;39;8966;-61
2022/12/29 12:43:48;;;;;;;;;38.00;33.25;;;;;;;;6487060;39;8913;-61
2022/12/29 12:50:31;;;;;;;;;32.00;29.25;;;;;;;;6487492;39;8897;-62
2022/12/29 12:56:43;;;;;;;;;29.50;26.00;;;;;;;;6485856;39;9513;-61
2022/12/29 13:03:17;;;;;;;;;36.00;34.00;;;;;;;;6487747;39;9021;-61
2022/12/29 13:09:45;;;;;;;;;34.50;34.50;;;;;;;;6488522;39;8983;-62
2022/12/29 13:16:12;;;;;;;;;33.50;27.75;;;;;;;;6489306;39;8874;-62
2022/12/29 13:23:05;;;;;;;;;29.25;23.50;;;;;;;;6489069;39;8891;-62
2022/12/29 13:29:45;;;;;;;;;31.50;30.00;;;;;;;;6489925;39;8972;-61
2022/12/29 13:36:16;;;;;;;;;24.00;23.00;;;;;;;;6488817;39;8922;-62
2022/12/29 13:42:19;;;;;;;;;28.75;24.00;;;;;;;;6489431;31;9592;-62
2022/12/29 13:48:35;;;;;;;;;21.50;14.50;;;;;;;;6488077;39;8972;-62
2022/12/29 13:54:46;;;;;;;;;20.50;19.50;;;;;;;;6489561;39;8919;-62
2022/12/29 14:00:54;;;;;;;;;23.75;22.00;;;;;;;;6487749;39;9534;-62
2022/12/29 14:07:04;;;;;;;;;26.00;22.75;;;;;;;;6488698;31;9050;-61
2022/12/29 14:13:17;;;;;;;;;35.50;28.25;;;;;;;;6488535;39;9531;-61
2022/12/29 14:19:28;;;;;;;;;32.00;31.00;;;;;;;;6487853;39;8949;-62
2022/12/29 14:26:08;;;;;;;;;37.00;28.50;;;;;;;;6488273;46;8912;-62
2022/12/29 14:32:32;;;;;;;;;29.00;26.67;;;;;;;;6487376;46;8871;-62
2022/12/29 14:38:46;;;;;;;;;22.50;22.50;;;;;;;;6489444;39;8961;-62
2022/12/29 14:45:12;;;;;;;;;28.50;25.25;;;;;;;;6487516;39;9592;-63
2022/12/29 14:51:31;;;;;;;;;29.25;28.25;;;;;;;;6488039;46;8908;-61
2022/12/29 14:57:40;;;;;;;;;29.25;29.25;;;;;;;;6487380;31;8888;-62
2022/12/29 15:03:51;;;;;;;;;36.75;33.00;;;;;;;;6487997;39;8964;-62
2022/12/29 15:10:06;;;;;;;;;41.75;35.00;;;;;;;;6488572;31;8857;-62
2022/12/29 15:16:36;;;;;;;;;41.75;40.50;;;;;;;;6488371;39;8865;-61
2022/12/29 15:22:44;;;;;;;;;58.50;47.50;;;;;;;;6487323;46;9100;-60
2022/12/29 15:28:47;;;;;;;;;60.00;46.00;;;;;;;;6487953;46;8909;-60
2022/12/29 15:34:53;;;;;;;;;61.00;49.50;;;;;;;;6487176;39;8886;-62
2022/12/29 15:41:05;;;;;;;;;64.25;53.00;;;;;;;;6487747;39;9048;-61
2022/12/29 15:47:18;;;;;;;;;63.50;51.00;;;;;;;;6488457;39;8918;-61
2022/12/29 15:53:32;;;;;;;;;64.00;53.00;;;;;;;;6487758;39;8913;-62
2022/12/29 15:59:34;;;;;;;;;70.25;53.75;;;;;;;;6487868;39;9511;-61
2022/12/29 16:05:40;;;;;;;;;75.50;59.50;;;;;;;;6488187;31;9072;-61
2022/12/29 16:11:56;;;;;;;;;58.00;49.75;;;;;;;;6486405;31;8911;-61
2022/12/29 16:18:00;;;;;;;;;66.75;55.75;;;;;;;;6486594;39;8918;-60
2022/12/29 16:24:14;;;;;;;;;64.50;54.25;;;;;;;;6486227;31;8919;-60
2022/12/29 16:30:21;;;;;;;;;69.25;54.00;;;;;;;;6486487;46;9023;-61
2022/12/29 16:36:34;;;;;;;;;60.50;50.75;;;;;;;;6486240;39;8943;-61
2022/12/29 16:42:38;;;;;;;;;59.25;50.50;;;;;;;;6503245;36;8961;-61
2022/12/29 16:48:50;;;;;;;;;70.75;56.00;;;;;;;;6485765;39;8884;-61
2022/12/29 16:54:59;;;;;;;;;64.25;50.00;;;;;;;;6485877;47;8887;-61
2022/12/29 17:01:05;;;;;;;;;67.00;57.00;;;;;;;;6487324;39;8879;-62
2022/12/29 17:07:18;;;;;;;;;67.75;52.50;;;;;;;;6485578;31;9102;-61
2022/12/29 17:13:29;;;;;;;;;72.00;58.25;;;;;;;;6485758;47;8918;-60
2022/12/29 17:19:39;;;;;;;;;70.00;58.50;;;;;;;;6485490;39;9462;-60
2022/12/29 17:25:41;;;;;;;;;79.67;63.33;;;;;;;;6485716;31;8887;-61
2022/12/29 17:31:44;;;;;;;;;73.50;60.25;;;;;;;;6486647;39;8917;-61
2022/12/29 17:37:50;;;;;;;;;75.25;61.50;;;;;;;;6485559;39;9491;-61
2022/12/29 17:43:55;;;;;;;;;78.75;62.75;;;;;;;;6486240;47;8909;-62
2022/12/29 17:50:00;;;;;;;;;74.75;60.25;;;;;;;;6486158;39;8899;-61
2022/12/29 17:56:03;;;;;;;;;80.50;63.25;;;;;;;;6488553;39;8912;-62
2022/12/29 18:02:27;;;;;;;;;76.50;61.75;;;;;;;;6488132;39;8919;-60
2022/12/29 18:08:34;;;;;;;;;74.75;61.00;;;;;;;;6489072;31;8985;-60
2022/12/29 18:14:36;;;;;;;;;80.75;63.25;;;;;;;;6488262;31;8864;-61
2022/12/29 18:20:41;;;;;;;;;86.50;66.25;;;;;;;;6487243;46;8967;-61
2022/12/29 18:26:44;;;;;;;;;75.25;58.00;;;;;;;;6487997;39;8942;-60
2022/12/29 18:32:47;;;;;;;;;75.00;60.00;;;;;;;;6488700;39;8924;-61
2022/12/29 18:38:53;;;;;;;;;82.25;61.25;;;;;;;;6487734;39;8887;-61
2022/12/29 18:44:55;;;;;;;;;75.00;60.25;;;;;;;;6487949;39;8931;-61
2022/12/29 18:50:59;;;;;;;;;77.33;64.00;;;;;;;;6487422;39;8935;-61
2022/12/29 18:57:02;;;;;;;;;69.00;57.00;;;;;;;;6486808;39;8972;-61
2022/12/29 19:03:06;;;;;;;;;72.50;54.50;;;;;;;;6487163;39;8942;-61
2022/12/29 19:09:08;;;;;;;;;74.50;61.50;;;;;;;;6487023;31;8937;-60
2022/12/29 19:15:22;;;;;;;;;78.33;62.33;;;;;;;;6487172;46;8891;-61
2022/12/29 19:21:25;;;;;;;;;72.25;58.25;;;;;;;;6487190;46;8889;-62
2022/12/29 19:27:27;;;;;;;;;75.00;60.00;;;;;;;;6487584;31;8967;-61
2022/12/29 19:33:30;;;;;;;;;79.00;62.00;;;;;;;;6485458;46;8956;-61
2022/12/29 19:39:32;;;;;;;;;76.00;60.00;;;;;;;;6485668;31;8942;-60
2022/12/29 19:45:39;;;;;;;;;80.50;62.25;;;;;;;;6487769;39;8857;-61
2022/12/29 19:51:41;;;;;;;;;76.00;60.25;;;;;;;;6487652;39;9006;-62
2022/12/29 19:57:44;;;;;;;;;71.75;57.00;;;;;;;;6487913;39;9011;-61
2022/12/29 20:03:48;;;;;;;;;64.75;53.25;;;;;;;;6487770;31;9566;-61
2022/12/29 20:09:50;;;;;;;;;68.25;55.00;;;;;;;;6486850;31;8913;-61
2022/12/29 20:15:57;;;;;;;;;66.50;53.50;;;;;;;;6486735;39;8871;-61
2022/12/29 20:22:00;;;;;;;;;70.50;56.75;;;;;;;;6486398;46;8865;-61
2022/12/29 20:28:03;;;;;;;;;66.75;52.25;;;;;;;;6488164;31;8907;-61
2022/12/29 20:34:07;;;;;;;;;73.75;59.50;;;;;;;;6486443;31;8868;-60
2022/12/29 20:40:11;;;;;;;;;79.00;60.00;;;;;;;;6487303;39;8962;-61
2022/12/29 20:46:15;;;;;;;;;77.25;61.75;;;;;;;;6487060;31;8881;-60
2022/12/29 20:52:22;;;;;;;;;77.00;63.00;;;;;;;;6486756;39;8879;-61
2022/12/29 20:58:28;;;;;;;;;79.25;64.50;;;;;;;;6487057;39;8989;-60
2022/12/29 21:04:33;;;;;;;;;77.33;58.67;;;;;;;;6484587;31;9017;-62
2022/12/29 21:10:58;;;;;;;;;73.67;63.00;;;;;;;;6532156;36;8987;-61
2022/12/29 21:17:02;;;;;;;;;81.50;64.75;;;;;;;;6486342;39;8930;-61
2022/12/29 21:23:05;;;;;;;;;83.00;62.67;;;;;;;;6486012;39;9501;-60
2022/12/29 21:29:07;;;;;;;;;80.00;64.00;;;;;;;;6488978;31;8875;-62
2022/12/29 21:35:10;;;;;;;;;76.75;62.75;;;;;;;;6487305;46;8889;-60
2022/12/29 21:41:15;;;;;;;;;79.33;63.33;;;;;;;;6488815;39;9896;-61
2022/12/29 21:47:18;;;;;;;;;73.50;58.50;;;;;;;;6488045;46;8897;-61
2022/12/29 21:53:20;;;;;;;;;74.75;61.00;;;;;;;;6488463;39;9327;-63
2022/12/29 22:18:28;;;;;;;;;80.25;58.25;;;;;;;;6488141;39;9475;-60
2022/12/29 22:24:32;;;;;;;;;78.25;59.50;;;;;;;;6488128;39;9532;-61
2022/12/29 22:30:35;;;;;;;;;79.50;61.50;;;;;;;;6487395;39;8973;-61
2022/12/29 22:36:37;;;;;;;;;78.50;59.75;;;;;;;;6487869;31;8979;-59
2022/12/29 22:42:45;;;;;;;;;77.33;61.33;;;;;;;;6487228;31;8906;-60
2022/12/29 22:48:47;;;;;;;;;66.67;57.67;;;;;;;;6486446;39;8917;-60
2022/12/29 22:54:50;;;;;;;;;78.00;62.33;;;;;;;;6488320;31;8887;-61
2022/12/29 23:00:53;;;;;;;;;82.67;64.67;;;;;;;;6487921;31;8919;-63
2022/12/29 23:06:55;;;;;;;;;80.67;64.67;;;;;;;;6487078;46;9009;-62
2022/12/29 23:12:57;;;;;;;;;76.67;61.00;;;;;;;;6487044;39;8958;-61
2022/12/29 23:18:59;;;;;;;;;89.33;67.67;;;;;;;;6487740;39;9550;-62
2022/12/29 23:25:02;;;;;;;;;72.67;59.67;;;;;;;;6486992;46;8916;-63
2022/12/29 23:31:04;;;;;;;;;74.67;60.00;;;;;;;;6486593;46;8927;-60
2022/12/29 23:37:08;;;;;;;;;82.25;63.25;;;;;;;;6486977;39;8913;-60
2022/12/29 23:43:11;;;;;;;;;76.25;61.25;;;;;;;;6487431;39;9055;-61
2022/12/29 23:49:15;;;;;;;;;76.33;62.67;;;;;;;;6486517;46;8907;-60
2022/12/29 23:55:17;;;;;;;;;83.67;63.00;;;;;;;;6487010;39;8890;-60
